sensor_id;sensor_type;location;lat;lon;timestamp;P1;durP1;ratioP1;P2;durP2;ratioP2
52468;SDS011;38381;53.688;10.776;2024-03-23T00:54:01;15.18;;;5.35;;
52468;SDS011;38381;53.688;10.776;2024-03-23T00:59:01;15.80;;;6.07;;
52468;SDS011;38381;53.688;10.776;2024-03-23T01:04:02;12.35;;;5.53;;
52468;SDS011;38381;53.688;10.776;2024-03-23T01:09:03;14.70;;;6.18;;
52468;SDS011;38381;53.688;10.776;2024-03-23T01:14:03;18.58;;;6.65;;
52468;SDS011;38381;53.688;10.776;2024-03-23T01:19:03;23.90;;;7.32;;
52468;SDS011;38381;53.688;10.776;2024-03-23T01:24:04;19.58;;;6.43;;
52468;SDS011;38381;53.688;10.776;2024-03-23T01:29:04;25.48;;;8.63;;
52468;SDS011;38381;53.688;10.776;2024-03-23T01:34:05;15.13;;;6.70;;
52468;SDS011;38381;53.688;10.776;2024-03-23T01:39:05;17.95;;;7.18;;
52468;SDS011;38381;53.688;10.776;2024-03-23T01:44:09;24.25;;;6.90;;
52468;SDS011;38381;53.688;10.776;2024-03-23T01:49:11;20.50;;;5.70;;
52468;SDS011;38381;53.688;10.776;2024-03-23T01:54:12;14.77;;;5.68;;
52468;SDS011;38381;53.688;10.776;2024-03-23T01:59:12;13.90;;;6.55;;
52468;SDS011;38381;53.688;10.776;2024-03-23T02:04:13;19.55;;;6.28;;
52468;SDS011;38381;53.688;10.776;2024-03-23T02:09:13;15.60;;;5.97;;
52468;SDS011;38381;53.688;10.776;2024-03-23T02:14:14;21.98;;;6.38;;
52468;SDS011;38381;53.688;10.776;2024-03-23T02:19:14;23.35;;;6.88;;
52468;SDS011;38381;53.688;10.776;2024-03-23T02:24:14;26.40;;;9.20;;
52468;SDS011;38381;53.688;10.776;2024-03-23T02:29:15;14.45;;;5.85;;
52468;SDS011;38381;53.688;10.776;2024-03-23T02:34:15;32.25;;;6.85;;
52468;SDS011;38381;53.688;10.776;2024-03-23T02:39:16;20.77;;;8.35;;
52468;SDS011;38381;53.688;10.776;2024-03-23T02:44:16;16.50;;;5.20;;
52468;SDS011;38381;53.688;10.776;2024-03-23T02:49:19;17.52;;;5.47;;
52468;SDS011;38381;53.688;10.776;2024-03-23T02:54:21;16.35;;;6.55;;
52468;SDS011;38381;53.688;10.776;2024-03-23T02:59:21;12.03;;;7.07;;
52468;SDS011;38381;53.688;10.776;2024-03-23T03:04:22;18.08;;;5.97;;
52468;SDS011;38381;53.688;10.776;2024-03-23T03:09:22;16.50;;;5.78;;
52468;SDS011;38381;53.688;10.776;2024-03-23T03:14:23;17.13;;;6.90;;
52468;SDS011;38381;53.688;10.776;2024-03-23T03:19:26;17.08;;;6.72;;
52468;SDS011;38381;53.688;10.776;2024-03-23T03:24:27;24.60;;;7.75;;
52468;SDS011;38381;53.688;10.776;2024-03-23T03:29:27;19.48;;;5.70;;
52468;SDS011;38381;53.688;10.776;2024-03-23T03:34:34;16.38;;;7.80;;
52468;SDS011;38381;53.688;10.776;2024-03-23T03:39:34;19.33;;;7.25;;
52468;SDS011;38381;53.688;10.776;2024-03-23T03:44:34;12.65;;;5.75;;
52468;SDS011;38381;53.688;10.776;2024-03-23T03:49:36;15.15;;;5.95;;
52468;SDS011;38381;53.688;10.776;2024-03-23T03:54:37;15.95;;;6.32;;
52468;SDS011;38381;53.688;10.776;2024-03-23T03:59:37;16.17;;;6.43;;
52468;SDS011;38381;53.688;10.776;2024-03-23T04:04:38;18.30;;;6.30;;
52468;SDS011;38381;53.688;10.776;2024-03-23T04:09:38;23.98;;;7.63;;
52468;SDS011;38381;53.688;10.776;2024-03-23T04:14:39;24.10;;;7.10;;
52468;SDS011;38381;53.688;10.776;2024-03-23T04:19:39;22.63;;;7.80;;
52468;SDS011;38381;53.688;10.776;2024-03-23T04:24:39;11.27;;;5.80;;
52468;SDS011;38381;53.688;10.776;2024-03-23T04:29:40;18.70;;;5.30;;
52468;SDS011;38381;53.688;10.776;2024-03-23T04:34:40;22.17;;;6.18;;
52468;SDS011;38381;53.688;10.776;2024-03-23T04:39:41;23.20;;;8.05;;
52468;SDS011;38381;53.688;10.776;2024-03-23T04:44:42;20.15;;;8.15;;
52468;SDS011;38381;53.688;10.776;2024-03-23T04:49:43;16.95;;;7.13;;
52468;SDS011;38381;53.688;10.776;2024-03-23T04:54:43;20.48;;;7.75;;
52468;SDS011;38381;53.688;10.776;2024-03-23T04:59:45;12.65;;;5.85;;
52468;SDS011;38381;53.688;10.776;2024-03-23T05:04:45;19.90;;;5.88;;
52468;SDS011;38381;53.688;10.776;2024-03-23T05:09:46;19.90;;;7.72;;
52468;SDS011;38381;53.688;10.776;2024-03-23T05:14:47;18.83;;;5.47;;
52468;SDS011;38381;53.688;10.776;2024-03-23T05:19:47;14.75;;;5.97;;
52468;SDS011;38381;53.688;10.776;2024-03-23T05:24:48;15.07;;;6.55;;
52468;SDS011;38381;53.688;10.776;2024-03-23T05:29:48;16.77;;;5.82;;
52468;SDS011;38381;53.688;10.776;2024-03-23T05:34:48;23.25;;;5.95;;
52468;SDS011;38381;53.688;10.776;2024-03-23T05:39:50;18.98;;;5.43;;
52468;SDS011;38381;53.688;10.776;2024-03-23T05:44:51;16.50;;;6.78;;
52468;SDS011;38381;53.688;10.776;2024-03-23T05:49:52;13.55;;;6.00;;
52468;SDS011;38381;53.688;10.776;2024-03-23T05:54:54;14.68;;;6.57;;
52468;SDS011;38381;53.688;10.776;2024-03-23T05:59:54;11.05;;;5.63;;
52468;SDS011;38381;53.688;10.776;2024-03-23T06:04:55;12.43;;;5.90;;
52468;SDS011;38381;53.688;10.776;2024-03-23T06:09:55;16.05;;;7.50;;
52468;SDS011;38381;53.688;10.776;2024-03-23T06:14:55;17.52;;;7.32;;
52468;SDS011;38381;53.688;10.776;2024-03-23T06:19:56;21.02;;;6.45;;
52468;SDS011;38381;53.688;10.776;2024-03-23T06:24:57;18.30;;;6.78;;
52468;SDS011;38381;53.688;10.776;2024-03-23T06:29:58;14.80;;;6.88;;
52468;SDS011;38381;53.688;10.776;2024-03-23T06:34:59;14.77;;;7.35;;
52468;SDS011;38381;53.688;10.776;2024-03-23T06:40:00;21.02;;;9.32;;
52468;SDS011;38381;53.688;10.776;2024-03-23T06:45:00;17.55;;;7.05;;
52468;SDS011;38381;53.688;10.776;2024-03-23T06:50:01;19.88;;;7.40;;
52468;SDS011;38381;53.688;10.776;2024-03-23T06:55:02;25.60;;;8.27;;
52468;SDS011;38381;53.688;10.776;2024-03-23T07:00:05;17.83;;;8.20;;
52468;SDS011;38381;53.688;10.776;2024-03-23T07:05:10;19.25;;;8.77;;
52468;SDS011;38381;53.688;10.776;2024-03-23T07:10:11;17.70;;;6.65;;
52468;SDS011;38381;53.688;10.776;2024-03-23T07:15:11;12.18;;;7.45;;
52468;SDS011;38381;53.688;10.776;2024-03-23T07:20:12;15.57;;;6.82;;
52468;SDS011;38381;53.688;10.776;2024-03-23T07:25:13;17.15;;;8.43;;
52468;SDS011;38381;53.688;10.776;2024-03-23T07:30:13;20.30;;;6.47;;
52468;SDS011;38381;53.688;10.776;2024-03-23T07:35:14;20.45;;;6.78;;
52468;SDS011;38381;53.688;10.776;2024-03-23T07:40:15;10.30;;;7.75;;
52468;SDS011;38381;53.688;10.776;2024-03-23T07:45:15;15.27;;;7.32;;
52468;SDS011;38381;53.688;10.776;2024-03-23T07:50:16;13.15;;;5.45;;
52468;SDS011;38381;53.688;10.776;2024-03-23T07:55:16;19.95;;;7.18;;
52468;SDS011;38381;53.688;10.776;2024-03-23T08:00:16;13.20;;;5.20;;
52468;SDS011;38381;53.688;10.776;2024-03-23T08:05:17;16.33;;;5.32;;
52468;SDS011;38381;53.688;10.776;2024-03-23T08:10:17;12.98;;;7.00;;
52468;SDS011;38381;53.688;10.776;2024-03-23T08:15:18;15.63;;;6.22;;
52468;SDS011;38381;53.688;10.776;2024-03-23T08:20:18;18.58;;;6.55;;
52468;SDS011;38381;53.688;10.776;2024-03-23T08:25:19;23.90;;;6.88;;
52468;SDS011;38381;53.688;10.776;2024-03-23T08:30:20;18.27;;;5.57;;
52468;SDS011;38381;53.688;10.776;2024-03-23T08:35:20;12.82;;;6.07;;
52468;SDS011;38381;53.688;10.776;2024-03-23T08:40:21;8.15;;;4.97;;
52468;SDS011;38381;53.688;10.776;2024-03-23T08:45:22;15.48;;;5.55;;
52468;SDS011;38381;53.688;10.776;2024-03-23T08:50:22;9.40;;;4.38;;
52468;SDS011;38381;53.688;10.776;2024-03-23T08:55:23;10.57;;;5.28;;
52468;SDS011;38381;53.688;10.776;2024-03-23T09:00:23;8.85;;;4.60;;
52468;SDS011;38381;53.688;10.776;2024-03-23T09:05:24;24.17;;;5.47;;
52468;SDS011;38381;53.688;10.776;2024-03-23T09:10:24;16.58;;;5.82;;
52468;SDS011;38381;53.688;10.776;2024-03-23T09:15:25;13.32;;;6.82;;
52468;SDS011;38381;53.688;10.776;2024-03-23T09:20:25;13.90;;;5.85;;
52468;SDS011;38381;53.688;10.776;2024-03-23T09:25:26;9.45;;;4.75;;
52468;SDS011;38381;53.688;10.776;2024-03-23T09:30:26;15.90;;;6.10;;
52468;SDS011;38381;53.688;10.776;2024-03-23T09:35:26;8.13;;;4.60;;
52468;SDS011;38381;53.688;10.776;2024-03-23T09:40:27;10.20;;;4.43;;
52468;SDS011;38381;53.688;10.776;2024-03-23T09:45:28;10.57;;;3.88;;
52468;SDS011;38381;53.688;10.776;2024-03-23T09:50:29;5.13;;;3.00;;
52468;SDS011;38381;53.688;10.776;2024-03-23T09:55:30;8.43;;;2.83;;
52468;SDS011;38381;53.688;10.776;2024-03-23T10:00:31;9.93;;;4.15;;
52468;SDS011;38381;53.688;10.776;2024-03-23T10:05:32;10.43;;;4.28;;
52468;SDS011;38381;53.688;10.776;2024-03-23T10:10:36;7.65;;;3.60;;
52468;SDS011;38381;53.688;10.776;2024-03-23T10:15:36;5.72;;;2.72;;
52468;SDS011;38381;53.688;10.776;2024-03-23T10:20:37;5.85;;;2.92;;
52468;SDS011;38381;53.688;10.776;2024-03-23T10:25:37;5.57;;;3.00;;
52468;SDS011;38381;53.688;10.776;2024-03-23T10:30:38;11.35;;;3.42;;
52468;SDS011;38381;53.688;10.776;2024-03-23T10:35:38;8.77;;;3.08;;
52468;SDS011;38381;53.688;10.776;2024-03-23T10:40:39;5.25;;;2.90;;
52468;SDS011;38381;53.688;10.776;2024-03-23T10:45:41;7.72;;;3.47;;
52468;SDS011;38381;53.688;10.776;2024-03-23T10:50:42;6.45;;;2.50;;
52468;SDS011;38381;53.688;10.776;2024-03-23T10:55:42;8.13;;;2.90;;
52468;SDS011;38381;53.688;10.776;2024-03-23T11:00:44;7.00;;;3.55;;
52468;SDS011;38381;53.688;10.776;2024-03-23T11:05:47;6.57;;;3.35;;
52468;SDS011;38381;53.688;10.776;2024-03-23T11:10:47;6.20;;;2.33;;
52468;SDS011;38381;53.688;10.776;2024-03-23T11:15:48;6.50;;;2.95;;
52468;SDS011;38381;53.688;10.776;2024-03-23T11:20:48;6.68;;;3.10;;
52468;SDS011;38381;53.688;10.776;2024-03-23T11:25:49;4.80;;;2.60;;
52468;SDS011;38381;53.688;10.776;2024-03-23T11:30:49;3.67;;;2.78;;
52468;SDS011;38381;53.688;10.776;2024-03-23T11:35:50;6.45;;;2.45;;
52468;SDS011;38381;53.688;10.776;2024-03-23T11:40:51;6.68;;;2.45;;
52468;SDS011;38381;53.688;10.776;2024-03-23T11:45:52;5.03;;;2.08;;
52468;SDS011;38381;53.688;10.776;2024-03-23T11:50:57;4.32;;;2.83;;
52468;SDS011;38381;53.688;10.776;2024-03-23T11:55:58;3.40;;;1.45;;
52468;SDS011;38381;53.688;10.776;2024-03-23T12:01:01;3.92;;;2.50;;
52468;SDS011;38381;53.688;10.776;2024-03-23T12:06:03;3.78;;;1.95;;
52468;SDS011;38381;53.688;10.776;2024-03-23T12:21:21;6.70;;;2.85;;
52468;SDS011;38381;53.688;10.776;2024-03-23T12:26:22;7.20;;;3.47;;
52468;SDS011;38381;53.688;10.776;2024-03-23T12:31:23;9.10;;;3.15;;
52468;SDS011;38381;53.688;10.776;2024-03-23T12:36:24;8.57;;;3.13;;
52468;SDS011;38381;53.688;10.776;2024-03-23T12:41:25;7.25;;;3.20;;
52468;SDS011;38381;53.688;10.776;2024-03-23T12:46:25;10.63;;;3.38;;
52468;SDS011;38381;53.688;10.776;2024-03-23T12:51:26;5.65;;;2.60;;
52468;SDS011;38381;53.688;10.776;2024-03-23T12:56:26;5.07;;;2.25;;
52468;SDS011;38381;53.688;10.776;2024-03-23T13:01:28;1.73;;;1.30;;
52468;SDS011;38381;53.688;10.776;2024-03-23T13:06:28;4.15;;;1.52;;
52468;SDS011;38381;53.688;10.776;2024-03-23T13:11:34;2.67;;;1.58;;
52468;SDS011;38381;53.688;10.776;2024-03-23T13:16:34;2.55;;;1.77;;
52468;SDS011;38381;53.688;10.776;2024-03-23T13:21:35;3.20;;;1.70;;
52468;SDS011;38381;53.688;10.776;2024-03-23T13:26:35;5.13;;;2.00;;
52468;SDS011;38381;53.688;10.776;2024-03-23T13:31:36;3.40;;;2.38;;
52468;SDS011;38381;53.688;10.776;2024-03-23T13:36:36;1.75;;;1.52;;
52468;SDS011;38381;53.688;10.776;2024-03-23T13:41:40;4.90;;;1.92;;
52468;SDS011;38381;53.688;10.776;2024-03-23T13:46:42;1.50;;;1.33;;
52468;SDS011;38381;53.688;10.776;2024-03-23T13:51:46;2.40;;;1.60;;
52468;SDS011;38381;53.688;10.776;2024-03-23T13:56:53;1.90;;;1.65;;
52468;SDS011;38381;53.688;10.776;2024-03-23T14:01:55;2.90;;;1.92;;
52468;SDS011;38381;53.688;10.776;2024-03-23T14:06:55;1.42;;;1.25;;
52468;SDS011;38381;53.688;10.776;2024-03-23T14:11:55;2.05;;;1.70;;
52468;SDS011;38381;53.688;10.776;2024-03-23T14:16:56;4.55;;;2.53;;
52468;SDS011;38381;53.688;10.776;2024-03-23T14:21:56;3.03;;;1.75;;
52468;SDS011;38381;53.688;10.776;2024-03-23T14:26:57;6.03;;;2.00;;
52468;SDS011;38381;53.688;10.776;2024-03-23T14:31:57;2.60;;;1.80;;
52468;SDS011;38381;53.688;10.776;2024-03-23T14:36:57;2.83;;;2.15;;
52468;SDS011;38381;53.688;10.776;2024-03-23T14:41:58;4.75;;;2.25;;
52468;SDS011;38381;53.688;10.776;2024-03-23T14:46:59;2.35;;;2.15;;
52468;SDS011;38381;53.688;10.776;2024-03-23T14:51:59;2.20;;;1.50;;
52468;SDS011;38381;53.688;10.776;2024-03-23T14:57:00;2.75;;;1.73;;
52468;SDS011;38381;53.688;10.776;2024-03-23T15:02:00;1.70;;;1.50;;
52468;SDS011;38381;53.688;10.776;2024-03-23T15:07:01;3.42;;;2.10;;
52468;SDS011;38381;53.688;10.776;2024-03-23T15:12:01;2.97;;;2.03;;
52468;SDS011;38381;53.688;10.776;2024-03-23T15:17:02;2.63;;;1.50;;
52468;SDS011;38381;53.688;10.776;2024-03-23T15:22:07;6.35;;;1.60;;
52468;SDS011;38381;53.688;10.776;2024-03-23T15:27:08;4.07;;;1.98;;
52468;SDS011;38381;53.688;10.776;2024-03-23T15:32:09;3.40;;;2.60;;
52468;SDS011;38381;53.688;10.776;2024-03-23T15:37:09;2.58;;;2.35;;
52468;SDS011;38381;53.688;10.776;2024-03-23T15:42:10;3.22;;;2.15;;
52468;SDS011;38381;53.688;10.776;2024-03-23T15:47:10;5.88;;;3.13;;
52468;SDS011;38381;53.688;10.776;2024-03-23T15:52:11;2.47;;;1.83;;
52468;SDS011;38381;53.688;10.776;2024-03-23T15:57:11;4.10;;;2.10;;
52468;SDS011;38381;53.688;10.776;2024-03-23T16:02:12;5.03;;;2.20;;
52468;SDS011;38381;53.688;10.776;2024-03-23T16:07:12;3.90;;;2.33;;
52468;SDS011;38381;53.688;10.776;2024-03-23T16:12:13;4.65;;;2.72;;
52468;SDS011;38381;53.688;10.776;2024-03-23T16:17:14;2.40;;;1.73;;
52468;SDS011;38381;53.688;10.776;2024-03-23T16:22:14;3.42;;;1.95;;
52468;SDS011;38381;53.688;10.776;2024-03-23T16:27:15;3.10;;;1.50;;
52468;SDS011;38381;53.688;10.776;2024-03-23T16:32:15;2.78;;;2.55;;
52468;SDS011;38381;53.688;10.776;2024-03-23T16:37:17;2.20;;;1.40;;
52468;SDS011;38381;53.688;10.776;2024-03-23T16:42:17;2.95;;;1.90;;
52468;SDS011;38381;53.688;10.776;2024-03-23T16:47:18;4.10;;;1.70;;
52468;SDS011;38381;53.688;10.776;2024-03-23T16:52:18;6.07;;;1.73;;
52468;SDS011;38381;53.688;10.776;2024-03-23T16:57:19;4.30;;;2.75;;
52468;SDS011;38381;53.688;10.776;2024-03-23T17:02:19;3.72;;;2.28;;
52468;SDS011;38381;53.688;10.776;2024-03-23T17:07:20;2.97;;;2.05;;
52468;SDS011;38381;53.688;10.776;2024-03-23T17:12:20;4.10;;;2.20;;
52468;SDS011;38381;53.688;10.776;2024-03-23T17:17:20;3.25;;;2.03;;
52468;SDS011;38381;53.688;10.776;2024-03-23T17:22:21;6.70;;;2.70;;
52468;SDS011;38381;53.688;10.776;2024-03-23T17:27:22;3.28;;;2.25;;
52468;SDS011;38381;53.688;10.776;2024-03-23T17:32:23;3.30;;;2.35;;
52468;SDS011;38381;53.688;10.776;2024-03-23T17:37:23;1.50;;;1.40;;
52468;SDS011;38381;53.688;10.776;2024-03-23T17:42:24;3.22;;;1.48;;
52468;SDS011;38381;53.688;10.776;2024-03-23T17:47:25;2.45;;;1.63;;
52468;SDS011;38381;53.688;10.776;2024-03-23T17:52:27;2.90;;;1.50;;
52468;SDS011;38381;53.688;10.776;2024-03-23T17:57:27;2.17;;;1.75;;
52468;SDS011;38381;53.688;10.776;2024-03-23T18:02:28;2.05;;;1.85;;
52468;SDS011;38381;53.688;10.776;2024-03-23T18:07:28;2.00;;;1.80;;
52468;SDS011;38381;53.688;10.776;2024-03-23T18:12:29;2.33;;;1.52;;
52468;SDS011;38381;53.688;10.776;2024-03-23T18:17:29;1.75;;;1.65;;
52468;SDS011;38381;53.688;10.776;2024-03-23T18:22:30;2.90;;;2.30;;
52468;SDS011;38381;53.688;10.776;2024-03-23T18:27:31;2.63;;;1.73;;
52468;SDS011;38381;53.688;10.776;2024-03-23T18:32:31;3.95;;;2.65;;
52468;SDS011;38381;53.688;10.776;2024-03-23T18:37:32;3.13;;;2.00;;
52468;SDS011;38381;53.688;10.776;2024-03-23T18:42:32;2.92;;;2.38;;
52468;SDS011;38381;53.688;10.776;2024-03-23T18:47:32;3.20;;;2.75;;
52468;SDS011;38381;53.688;10.776;2024-03-23T18:52:33;6.50;;;3.88;;
52468;SDS011;38381;53.688;10.776;2024-03-23T18:57:34;3.72;;;2.50;;
52468;SDS011;38381;53.688;10.776;2024-03-23T19:02:34;3.50;;;2.80;;
52468;SDS011;38381;53.688;10.776;2024-03-23T19:07:35;6.18;;;2.88;;
52468;SDS011;38381;53.688;10.776;2024-03-23T19:12:35;2.60;;;2.35;;
52468;SDS011;38381;53.688;10.776;2024-03-23T19:17:35;3.20;;;2.40;;
52468;SDS011;38381;53.688;10.776;2024-03-23T19:22:36;5.25;;;3.92;;
52468;SDS011;38381;53.688;10.776;2024-03-23T19:27:36;3.13;;;2.20;;
52468;SDS011;38381;53.688;10.776;2024-03-23T19:32:41;8.65;;;4.32;;
52468;SDS011;38381;53.688;10.776;2024-03-23T19:37:42;5.03;;;2.90;;
52468;SDS011;38381;53.688;10.776;2024-03-23T19:42:42;2.92;;;2.70;;
52468;SDS011;38381;53.688;10.776;2024-03-23T19:47:43;4.72;;;2.70;;
52468;SDS011;38381;53.688;10.776;2024-03-23T19:52:43;7.15;;;2.95;;
52468;SDS011;38381;53.688;10.776;2024-03-23T19:57:43;4.78;;;3.10;;
52468;SDS011;38381;53.688;10.776;2024-03-23T20:02:45;2.80;;;2.47;;
52468;SDS011;38381;53.688;10.776;2024-03-23T20:07:46;3.97;;;3.38;;
52468;SDS011;38381;53.688;10.776;2024-03-23T20:12:46;6.65;;;4.05;;
52468;SDS011;38381;53.688;10.776;2024-03-23T20:17:48;8.10;;;4.13;;
52468;SDS011;38381;53.688;10.776;2024-03-23T20:22:49;5.68;;;3.85;;
52468;SDS011;38381;53.688;10.776;2024-03-23T20:27:49;7.80;;;4.35;;
52468;SDS011;38381;53.688;10.776;2024-03-23T20:32:50;7.95;;;4.35;;
52468;SDS011;38381;53.688;10.776;2024-03-23T20:37:50;6.05;;;4.00;;
52468;SDS011;38381;53.688;10.776;2024-03-23T20:42:51;9.00;;;4.35;;
52468;SDS011;38381;53.688;10.776;2024-03-23T20:47:51;5.05;;;4.47;;
52468;SDS011;38381;53.688;10.776;2024-03-23T20:52:52;6.10;;;4.20;;
52468;SDS011;38381;53.688;10.776;2024-03-23T20:57:52;7.22;;;4.55;;
52468;SDS011;38381;53.688;10.776;2024-03-23T21:02:53;5.20;;;4.30;;
52468;SDS011;38381;53.688;10.776;2024-03-23T21:07:53;9.75;;;3.70;;
52468;SDS011;38381;53.688;10.776;2024-03-23T21:12:54;6.60;;;4.25;;
52468;SDS011;38381;53.688;10.776;2024-03-23T21:17:54;7.20;;;4.30;;
52468;SDS011;38381;53.688;10.776;2024-03-23T21:22:55;4.57;;;3.97;;
52468;SDS011;38381;53.688;10.776;2024-03-23T21:27:55;5.53;;;4.53;;
52468;SDS011;38381;53.688;10.776;2024-03-23T21:32:55;6.30;;;4.00;;
52468;SDS011;38381;53.688;10.776;2024-03-23T21:37:56;5.78;;;4.00;;
52468;SDS011;38381;53.688;10.776;2024-03-23T21:42:56;7.10;;;4.28;;
52468;SDS011;38381;53.688;10.776;2024-03-23T21:47:57;6.80;;;4.72;;
52468;SDS011;38381;53.688;10.776;2024-03-23T21:52:57;6.35;;;3.90;;
52468;SDS011;38381;53.688;10.776;2024-03-23T21:57:58;8.70;;;4.65;;
52468;SDS011;38381;53.688;10.776;2024-03-23T22:02:58;4.85;;;4.20;;
52468;SDS011;38381;53.688;10.776;2024-03-23T22:07:58;4.97;;;3.80;;
52468;SDS011;38381;53.688;10.776;2024-03-23T22:12:59;4.75;;;3.67;;
52468;SDS011;38381;53.688;10.776;2024-03-23T22:18:00;6.90;;;4.32;;
52468;SDS011;38381;53.688;10.776;2024-03-23T22:23:03;5.20;;;3.80;;
52468;SDS011;38381;53.688;10.776;2024-03-23T22:28:04;7.00;;;3.85;;
52468;SDS011;38381;53.688;10.776;2024-03-23T22:33:06;5.40;;;3.50;;
52468;SDS011;38381;53.688;10.776;2024-03-23T22:38:06;5.50;;;3.70;;
52468;SDS011;38381;53.688;10.776;2024-03-23T22:43:07;4.28;;;3.20;;
52468;SDS011;38381;53.688;10.776;2024-03-23T22:48:08;3.97;;;3.38;;
52468;SDS011;38381;53.688;10.776;2024-03-23T22:53:09;4.68;;;3.70;;
52468;SDS011;38381;53.688;10.776;2024-03-23T22:58:09;7.10;;;3.17;;
52468;SDS011;38381;53.688;10.776;2024-03-23T23:03:13;8.80;;;3.70;;
52468;SDS011;38381;53.688;10.776;2024-03-23T23:08:14;3.33;;;3.03;;
52468;SDS011;38381;53.688;10.776;2024-03-23T23:13:14;4.68;;;3.65;;
52468;SDS011;38381;53.688;10.776;2024-03-23T23:18:16;6.13;;;4.20;;
52468;SDS011;38381;53.688;10.776;2024-03-23T23:23:17;17.27;;;5.03;;
52468;SDS011;38381;53.688;10.776;2024-03-23T23:28:18;4.20;;;3.70;;
52468;SDS011;38381;53.688;10.776;2024-03-23T23:33:19;5.65;;;3.47;;
52468;SDS011;38381;53.688;10.776;2024-03-23T23:38:19;6.57;;;3.83;;
52468;SDS011;38381;53.688;10.776;2024-03-23T23:43:25;5.13;;;3.88;;
52468;SDS011;38381;53.688;10.776;2024-03-23T23:48:26;6.45;;;4.10;;
52468;SDS011;38381;53.688;10.776;2024-03-23T23:53:27;7.43;;;4.35;;
52468;SDS011;38381;53.688;10.776;2024-03-23T23:58:27;4.85;;;3.45;;
